sensor_id;sensor_type;location;lat;lon;timestamp;P1;durP1;ratioP1;P2;durP2;ratioP2
81701;SDS011;71115;52.150;4.510;2023-07-31T00:00:48;2.33;;;0.73;;
81701;SDS011;71115;52.150;4.510;2023-07-31T00:03:14;3.70;;;1.02;;
81701;SDS011;71115;52.150;4.510;2023-07-31T00:05:40;2.88;;;0.85;;
81701;SDS011;71115;52.150;4.510;2023-07-31T00:08:06;2.63;;;1.17;;
81701;SDS011;71115;52.150;4.510;2023-07-31T00:10:32;2.88;;;1.33;;
81701;SDS011;71115;52.150;4.510;2023-07-31T00:13:01;3.72;;;1.17;;
81701;SDS011;71115;52.150;4.510;2023-07-31T00:15:27;3.35;;;1.00;;
81701;SDS011;71115;52.150;4.510;2023-07-31T00:17:53;3.70;;;1.02;;
81701;SDS011;71115;52.150;4.510;2023-07-31T00:20:19;4.40;;;1.10;;
81701;SDS011;71115;52.150;4.510;2023-07-31T00:22:45;2.08;;;0.80;;
81701;SDS011;71115;52.150;4.510;2023-07-31T00:25:11;3.25;;;0.93;;
81701;SDS011;71115;52.150;4.510;2023-07-31T00:27:37;3.72;;;1.25;;
81701;SDS011;71115;52.150;4.510;2023-07-31T00:30:03;2.83;;;0.90;;
81701;SDS011;71115;52.150;4.510;2023-07-31T00:32:29;3.55;;;0.90;;
81701;SDS011;71115;52.150;4.510;2023-07-31T00:34:55;2.47;;;0.90;;
81701;SDS011;71115;52.150;4.510;2023-07-31T00:37:21;2.70;;;1.17;;
81701;SDS011;71115;52.150;4.510;2023-07-31T00:39:47;4.25;;;1.02;;
81701;SDS011;71115;52.150;4.510;2023-07-31T00:42:13;3.47;;;1.30;;
81701;SDS011;71115;52.150;4.510;2023-07-31T00:44:39;4.47;;;0.98;;
81701;SDS011;71115;52.150;4.510;2023-07-31T00:47:05;4.30;;;1.02;;
81701;SDS011;71115;52.150;4.510;2023-07-31T00:49:31;3.17;;;1.02;;
81701;SDS011;71115;52.150;4.510;2023-07-31T00:51:57;2.60;;;0.90;;
81701;SDS011;71115;52.150;4.510;2023-07-31T00:54:23;2.17;;;0.88;;
81701;SDS011;71115;52.150;4.510;2023-07-31T00:56:49;3.53;;;1.00;;
81701;SDS011;71115;52.150;4.510;2023-07-31T00:59:16;5.03;;;1.38;;
81701;SDS011;71115;52.150;4.510;2023-07-31T01:01:43;3.13;;;1.02;;
81701;SDS011;71115;52.150;4.510;2023-07-31T01:04:09;3.92;;;1.00;;
81701;SDS011;71115;52.150;4.510;2023-07-31T01:06:37;2.80;;;1.13;;
81701;SDS011;71115;52.150;4.510;2023-07-31T01:11:33;3.53;;;1.30;;
81701;SDS011;71115;52.150;4.510;2023-07-31T01:14:00;3.50;;;1.10;;
81701;SDS011;71115;52.150;4.510;2023-07-31T01:16:27;4.30;;;1.20;;
81701;SDS011;71115;52.150;4.510;2023-07-31T01:18:53;3.50;;;1.00;;
81701;SDS011;71115;52.150;4.510;2023-07-31T01:24:06;3.72;;;1.00;;
81701;SDS011;71115;52.150;4.510;2023-07-31T01:26:34;3.83;;;1.10;;
81701;SDS011;71115;52.150;4.510;2023-07-31T01:29:20;3.17;;;1.17;;
81701;SDS011;71115;52.150;4.510;2023-07-31T01:31:50;4.03;;;1.60;;
81701;SDS011;71115;52.150;4.510;2023-07-31T01:34:19;4.75;;;1.13;;
81701;SDS011;71115;52.150;4.510;2023-07-31T01:36:46;3.42;;;1.10;;
81701;SDS011;71115;52.150;4.510;2023-07-31T01:39:12;3.38;;;0.95;;
81701;SDS011;71115;52.150;4.510;2023-07-31T01:44:04;3.83;;;1.20;;
81701;SDS011;71115;52.150;4.510;2023-07-31T01:48:56;2.90;;;0.95;;
81701;SDS011;71115;52.150;4.510;2023-07-31T01:51:22;5.78;;;1.50;;
81701;SDS011;71115;52.150;4.510;2023-07-31T01:53:48;4.07;;;1.42;;
81701;SDS011;71115;52.150;4.510;2023-07-31T01:58:40;5.72;;;1.67;;
81701;SDS011;71115;52.150;4.510;2023-07-31T02:01:06;3.55;;;1.00;;
81701;SDS011;71115;52.150;4.510;2023-07-31T02:03:32;4.95;;;1.30;;
81701;SDS011;71115;52.150;4.510;2023-07-31T02:05:58;5.43;;;1.40;;
81701;SDS011;71115;52.150;4.510;2023-07-31T02:08:24;4.72;;;1.35;;
81701;SDS011;71115;52.150;4.510;2023-07-31T02:10:51;3.15;;;1.02;;
81701;SDS011;71115;52.150;4.510;2023-07-31T02:13:17;5.93;;;1.55;;
81701;SDS011;71115;52.150;4.510;2023-07-31T02:15:43;4.00;;;1.27;;
81701;SDS011;71115;52.150;4.510;2023-07-31T02:18:09;3.67;;;1.30;;
81701;SDS011;71115;52.150;4.510;2023-07-31T02:20:35;6.38;;;1.65;;
81701;SDS011;71115;52.150;4.510;2023-07-31T02:23:01;4.07;;;1.52;;
81701;SDS011;71115;52.150;4.510;2023-07-31T02:25:27;5.32;;;1.90;;
81701;SDS011;71115;52.150;4.510;2023-07-31T02:27:53;4.82;;;1.35;;
81701;SDS011;71115;52.150;4.510;2023-07-31T02:30:19;2.80;;;1.10;;
81701;SDS011;71115;52.150;4.510;2023-07-31T02:32:45;5.45;;;1.42;;
81701;SDS011;71115;52.150;4.510;2023-07-31T02:35:11;4.80;;;1.48;;
81701;SDS011;71115;52.150;4.510;2023-07-31T02:37:40;4.45;;;1.65;;
81701;SDS011;71115;52.150;4.510;2023-07-31T02:42:32;5.30;;;1.38;;
81701;SDS011;71115;52.150;4.510;2023-07-31T02:44:58;4.13;;;1.58;;
81701;SDS011;71115;52.150;4.510;2023-07-31T02:47:24;3.53;;;1.42;;
81701;SDS011;71115;52.150;4.510;2023-07-31T02:49:50;5.38;;;1.80;;
81701;SDS011;71115;52.150;4.510;2023-07-31T02:52:16;6.35;;;2.22;;
81701;SDS011;71115;52.150;4.510;2023-07-31T02:54:42;4.63;;;1.42;;
81701;SDS011;71115;52.150;4.510;2023-07-31T02:57:08;4.53;;;1.38;;
81701;SDS011;71115;52.150;4.510;2023-07-31T02:59:34;5.63;;;2.45;;
81701;SDS011;71115;52.150;4.510;2023-07-31T03:02:00;5.55;;;1.70;;
81701;SDS011;71115;52.150;4.510;2023-07-31T03:04:26;5.78;;;1.70;;
81701;SDS011;71115;52.150;4.510;2023-07-31T03:06:52;5.88;;;1.88;;
81701;SDS011;71115;52.150;4.510;2023-07-31T03:09:18;5.45;;;1.63;;
81701;SDS011;71115;52.150;4.510;2023-07-31T03:11:44;5.22;;;1.88;;
81701;SDS011;71115;52.150;4.510;2023-07-31T03:14:10;4.30;;;1.42;;
81701;SDS011;71115;52.150;4.510;2023-07-31T03:19:02;5.50;;;1.40;;
81701;SDS011;71115;52.150;4.510;2023-07-31T03:21:28;5.57;;;1.52;;
81701;SDS011;71115;52.150;4.510;2023-07-31T03:23:54;4.45;;;1.65;;
81701;SDS011;71115;52.150;4.510;2023-07-31T03:26:20;5.28;;;1.70;;
81701;SDS011;71115;52.150;4.510;2023-07-31T03:28:46;3.78;;;1.33;;
81701;SDS011;71115;52.150;4.510;2023-07-31T03:31:12;5.15;;;1.85;;
81701;SDS011;71115;52.150;4.510;2023-07-31T03:33:38;3.72;;;1.75;;
81701;SDS011;71115;52.150;4.510;2023-07-31T03:36:04;5.57;;;1.90;;
81701;SDS011;71115;52.150;4.510;2023-07-31T03:38:31;4.57;;;1.58;;
81701;SDS011;71115;52.150;4.510;2023-07-31T03:40:57;5.43;;;1.75;;
81701;SDS011;71115;52.150;4.510;2023-07-31T03:43:24;4.32;;;1.60;;
81701;SDS011;71115;52.150;4.510;2023-07-31T03:45:50;4.63;;;1.67;;
81701;SDS011;71115;52.150;4.510;2023-07-31T03:48:16;5.05;;;1.70;;
81701;SDS011;71115;52.150;4.510;2023-07-31T03:50:42;5.57;;;1.40;;
81701;SDS011;71115;52.150;4.510;2023-07-31T03:53:08;6.47;;;1.73;;
81701;SDS011;71115;52.150;4.510;2023-07-31T03:55:34;4.60;;;1.75;;
81701;SDS011;71115;52.150;4.510;2023-07-31T03:58:00;4.70;;;1.48;;
81701;SDS011;71115;52.150;4.510;2023-07-31T04:00:26;4.90;;;1.75;;
81701;SDS011;71115;52.150;4.510;2023-07-31T04:02:53;5.88;;;2.33;;
81701;SDS011;71115;52.150;4.510;2023-07-31T04:05:19;4.22;;;1.50;;
81701;SDS011;71115;52.150;4.510;2023-07-31T04:07:45;5.22;;;2.00;;
81701;SDS011;71115;52.150;4.510;2023-07-31T04:10:11;5.28;;;1.95;;
81701;SDS011;71115;52.150;4.510;2023-07-31T04:12:37;5.25;;;1.63;;
81701;SDS011;71115;52.150;4.510;2023-07-31T04:15:03;6.13;;;1.85;;
81701;SDS011;71115;52.150;4.510;2023-07-31T04:17:29;4.82;;;1.73;;
81701;SDS011;71115;52.150;4.510;2023-07-31T04:19:55;6.40;;;1.70;;
81701;SDS011;71115;52.150;4.510;2023-07-31T04:22:21;4.05;;;1.80;;
81701;SDS011;71115;52.150;4.510;2023-07-31T04:24:47;5.10;;;1.85;;
81701;SDS011;71115;52.150;4.510;2023-07-31T04:27:13;4.93;;;1.80;;
81701;SDS011;71115;52.150;4.510;2023-07-31T04:29:39;7.35;;;2.20;;
81701;SDS011;71115;52.150;4.510;2023-07-31T04:32:07;5.80;;;1.83;;
81701;SDS011;71115;52.150;4.510;2023-07-31T04:34:33;6.32;;;2.00;;
81701;SDS011;71115;52.150;4.510;2023-07-31T04:36:59;5.82;;;2.03;;
81701;SDS011;71115;52.150;4.510;2023-07-31T04:39:25;4.35;;;1.38;;
81701;SDS011;71115;52.150;4.510;2023-07-31T04:41:51;6.65;;;1.98;;
81701;SDS011;71115;52.150;4.510;2023-07-31T04:44:17;5.85;;;2.08;;
81701;SDS011;71115;52.150;4.510;2023-07-31T04:46:43;4.03;;;1.45;;
81701;SDS011;71115;52.150;4.510;2023-07-31T04:49:09;5.50;;;1.88;;
81701;SDS011;71115;52.150;4.510;2023-07-31T04:51:35;4.05;;;1.58;;
81701;SDS011;71115;52.150;4.510;2023-07-31T04:54:01;5.18;;;1.77;;
81701;SDS011;71115;52.150;4.510;2023-07-31T04:56:27;6.68;;;2.58;;
81701;SDS011;71115;52.150;4.510;2023-07-31T04:58:53;4.60;;;1.85;;
81701;SDS011;71115;52.150;4.510;2023-07-31T05:01:19;4.28;;;1.40;;
81701;SDS011;71115;52.150;4.510;2023-07-31T05:03:45;7.00;;;1.77;;
81701;SDS011;71115;52.150;4.510;2023-07-31T05:06:12;5.80;;;1.70;;
81701;SDS011;71115;52.150;4.510;2023-07-31T05:08:40;5.45;;;2.10;;
81701;SDS011;71115;52.150;4.510;2023-07-31T05:11:06;4.97;;;1.50;;
81701;SDS011;71115;52.150;4.510;2023-07-31T05:13:32;6.15;;;1.83;;
81701;SDS011;71115;52.150;4.510;2023-07-31T05:15:58;5.00;;;1.73;;
81701;SDS011;71115;52.150;4.510;2023-07-31T05:18:24;4.45;;;1.80;;
81701;SDS011;71115;52.150;4.510;2023-07-31T05:20:50;4.97;;;1.42;;
81701;SDS011;71115;52.150;4.510;2023-07-31T05:23:16;4.00;;;1.35;;
81701;SDS011;71115;52.150;4.510;2023-07-31T05:25:42;4.95;;;1.58;;
81701;SDS011;71115;52.150;4.510;2023-07-31T05:28:08;4.35;;;1.73;;
81701;SDS011;71115;52.150;4.510;2023-07-31T05:30:34;3.45;;;1.60;;
81701;SDS011;71115;52.150;4.510;2023-07-31T05:33:00;3.45;;;1.25;;
81701;SDS011;71115;52.150;4.510;2023-07-31T05:35:26;4.85;;;1.48;;
81701;SDS011;71115;52.150;4.510;2023-07-31T05:37:52;5.88;;;1.70;;
81701;SDS011;71115;52.150;4.510;2023-07-31T05:40:18;6.13;;;1.92;;
81701;SDS011;71115;52.150;4.510;2023-07-31T05:42:44;4.35;;;1.20;;
81701;SDS011;71115;52.150;4.510;2023-07-31T05:45:10;2.95;;;1.15;;
81701;SDS011;71115;52.150;4.510;2023-07-31T05:47:36;3.78;;;1.63;;
81701;SDS011;71115;52.150;4.510;2023-07-31T05:50:02;4.53;;;1.50;;
81701;SDS011;71115;52.150;4.510;2023-07-31T05:52:28;3.95;;;1.55;;
81701;SDS011;71115;52.150;4.510;2023-07-31T05:54:54;4.28;;;1.65;;
81701;SDS011;71115;52.150;4.510;2023-07-31T05:57:20;4.40;;;1.60;;
81701;SDS011;71115;52.150;4.510;2023-07-31T05:59:46;4.30;;;1.60;;
81701;SDS011;71115;52.150;4.510;2023-07-31T06:02:12;4.20;;;1.35;;
81701;SDS011;71115;52.150;4.510;2023-07-31T06:04:38;5.38;;;1.50;;
81701;SDS011;71115;52.150;4.510;2023-07-31T06:07:04;4.47;;;1.55;;
81701;SDS011;71115;52.150;4.510;2023-07-31T06:09:30;3.50;;;1.42;;
81701;SDS011;71115;52.150;4.510;2023-07-31T06:11:56;5.20;;;2.10;;
81701;SDS011;71115;52.150;4.510;2023-07-31T06:14:22;4.43;;;1.50;;
81701;SDS011;71115;52.150;4.510;2023-07-31T06:16:48;3.45;;;1.23;;
81701;SDS011;71115;52.150;4.510;2023-07-31T06:19:14;4.57;;;1.50;;
81701;SDS011;71115;52.150;4.510;2023-07-31T06:21:40;4.63;;;1.35;;
81701;SDS011;71115;52.150;4.510;2023-07-31T06:24:09;5.80;;;1.90;;
81701;SDS011;71115;52.150;4.510;2023-07-31T06:26:37;3.65;;;1.33;;
81701;SDS011;71115;52.150;4.510;2023-07-31T06:29:03;4.97;;;1.45;;
81701;SDS011;71115;52.150;4.510;2023-07-31T06:31:29;4.68;;;1.48;;
81701;SDS011;71115;52.150;4.510;2023-07-31T06:33:55;2.35;;;1.00;;
81701;SDS011;71115;52.150;4.510;2023-07-31T06:36:21;2.70;;;1.20;;
81701;SDS011;71115;52.150;4.510;2023-07-31T06:38:47;4.70;;;1.38;;
81701;SDS011;71115;52.150;4.510;2023-07-31T06:41:13;3.60;;;0.90;;
81701;SDS011;71115;52.150;4.510;2023-07-31T06:43:39;3.40;;;1.33;;
81701;SDS011;71115;52.150;4.510;2023-07-31T06:46:05;3.97;;;1.33;;
81701;SDS011;71115;52.150;4.510;2023-07-31T06:48:32;3.33;;;1.20;;
81701;SDS011;71115;52.150;4.510;2023-07-31T06:50:58;4.38;;;1.45;;
81701;SDS011;71115;52.150;4.510;2023-07-31T06:53:24;3.28;;;1.25;;
81701;SDS011;71115;52.150;4.510;2023-07-31T06:55:50;4.75;;;1.40;;
81701;SDS011;71115;52.150;4.510;2023-07-31T06:58:17;5.18;;;1.33;;
81701;SDS011;71115;52.150;4.510;2023-07-31T07:03:09;3.85;;;1.48;;
81701;SDS011;71115;52.150;4.510;2023-07-31T07:05:35;5.03;;;1.00;;
81701;SDS011;71115;52.150;4.510;2023-07-31T07:08:01;4.00;;;1.20;;
81701;SDS011;71115;52.150;4.510;2023-07-31T07:10:27;2.92;;;1.13;;
81701;SDS011;71115;52.150;4.510;2023-07-31T07:12:53;3.10;;;1.30;;
81701;SDS011;71115;52.150;4.510;2023-07-31T07:15:20;4.63;;;1.40;;
81701;SDS011;71115;52.150;4.510;2023-07-31T07:17:46;3.88;;;1.25;;
81701;SDS011;71115;52.150;4.510;2023-07-31T07:20:12;5.28;;;1.42;;
81701;SDS011;71115;52.150;4.510;2023-07-31T07:22:38;3.35;;;1.42;;
81701;SDS011;71115;52.150;4.510;2023-07-31T07:25:06;2.88;;;1.10;;
81701;SDS011;71115;52.150;4.510;2023-07-31T07:27:32;4.00;;;1.27;;
81701;SDS011;71115;52.150;4.510;2023-07-31T07:29:58;2.63;;;1.08;;
81701;SDS011;71115;52.150;4.510;2023-07-31T07:32:24;3.50;;;1.05;;
81701;SDS011;71115;52.150;4.510;2023-07-31T07:34:50;4.22;;;1.15;;
81701;SDS011;71115;52.150;4.510;2023-07-31T07:37:16;3.55;;;1.52;;
81701;SDS011;71115;52.150;4.510;2023-07-31T07:39:43;3.97;;;1.60;;
81701;SDS011;71115;52.150;4.510;2023-07-31T07:44:35;4.28;;;1.20;;
81701;SDS011;71115;52.150;4.510;2023-07-31T07:47:01;3.20;;;1.25;;
81701;SDS011;71115;52.150;4.510;2023-07-31T07:49:28;3.47;;;1.10;;
81701;SDS011;71115;52.150;4.510;2023-07-31T07:51:54;1.90;;;0.90;;
81701;SDS011;71115;52.150;4.510;2023-07-31T07:54:20;3.35;;;1.05;;
81701;SDS011;71115;52.150;4.510;2023-07-31T07:56:46;3.00;;;0.85;;
81701;SDS011;71115;52.150;4.510;2023-07-31T07:59:12;4.22;;;1.00;;
81701;SDS011;71115;52.150;4.510;2023-07-31T08:01:38;2.47;;;1.10;;
81701;SDS011;71115;52.150;4.510;2023-07-31T08:04:04;2.92;;;1.02;;
81701;SDS011;71115;52.150;4.510;2023-07-31T08:06:30;4.30;;;1.20;;
81701;SDS011;71115;52.150;4.510;2023-07-31T08:08:56;4.32;;;1.30;;
81701;SDS011;71115;52.150;4.510;2023-07-31T08:11:22;3.03;;;1.15;;
81701;SDS011;71115;52.150;4.510;2023-07-31T08:13:49;3.20;;;1.15;;
81701;SDS011;71115;52.150;4.510;2023-07-31T08:16:15;2.63;;;1.23;;
81701;SDS011;71115;52.150;4.510;2023-07-31T08:21:10;3.00;;;1.25;;
81701;SDS011;71115;52.150;4.510;2023-07-31T08:26:02;2.08;;;0.80;;
81701;SDS011;71115;52.150;4.510;2023-07-31T08:28:28;4.22;;;1.20;;
81701;SDS011;71115;52.150;4.510;2023-07-31T08:30:54;4.68;;;1.20;;
81701;SDS011;71115;52.150;4.510;2023-07-31T08:33:20;4.10;;;1.20;;
81701;SDS011;71115;52.150;4.510;2023-07-31T08:35:46;4.20;;;1.20;;
81701;SDS011;71115;52.150;4.510;2023-07-31T08:38:13;3.05;;;1.10;;
81701;SDS011;71115;52.150;4.510;2023-07-31T08:40:39;2.80;;;0.90;;
81701;SDS011;71115;52.150;4.510;2023-07-31T08:43:05;3.17;;;0.95;;
81701;SDS011;71115;52.150;4.510;2023-07-31T08:45:31;3.20;;;0.90;;
81701;SDS011;71115;52.150;4.510;2023-07-31T08:47:58;3.95;;;1.30;;
81701;SDS011;71115;52.150;4.510;2023-07-31T08:50:24;2.88;;;0.98;;
81701;SDS011;71115;52.150;4.510;2023-07-31T08:52:51;2.45;;;0.85;;
81701;SDS011;71115;52.150;4.510;2023-07-31T08:55:17;4.68;;;1.20;;
81701;SDS011;71115;52.150;4.510;2023-07-31T08:57:48;3.33;;;1.27;;
81701;SDS011;71115;52.150;4.510;2023-07-31T09:00:16;3.17;;;1.08;;
81701;SDS011;71115;52.150;4.510;2023-07-31T09:02:46;2.17;;;0.70;;
81701;SDS011;71115;52.150;4.510;2023-07-31T09:05:12;3.38;;;1.10;;
81701;SDS011;71115;52.150;4.510;2023-07-31T09:07:38;2.45;;;0.75;;
81701;SDS011;71115;52.150;4.510;2023-07-31T09:10:05;2.85;;;1.00;;
81701;SDS011;71115;52.150;4.510;2023-07-31T09:12:31;2.55;;;0.90;;
81701;SDS011;71115;52.150;4.510;2023-07-31T09:14:58;3.53;;;1.63;;
81701;SDS011;71115;52.150;4.510;2023-07-31T09:17:30;3.78;;;0.90;;
81701;SDS011;71115;52.150;4.510;2023-07-31T09:19:57;2.58;;;0.95;;
81701;SDS011;71115;52.150;4.510;2023-07-31T09:22:32;2.50;;;0.88;;
81701;SDS011;71115;52.150;4.510;2023-07-31T09:25:14;2.90;;;1.00;;
81701;SDS011;71115;52.150;4.510;2023-07-31T09:27:54;4.63;;;1.20;;
81701;SDS011;71115;52.150;4.510;2023-07-31T09:30:21;2.90;;;1.05;;
81701;SDS011;71115;52.150;4.510;2023-07-31T09:32:47;5.05;;;1.30;;
81701;SDS011;71115;52.150;4.510;2023-07-31T09:35:20;3.25;;;1.30;;
81701;SDS011;71115;52.150;4.510;2023-07-31T09:37:50;3.20;;;0.93;;
81701;SDS011;71115;52.150;4.510;2023-07-31T09:40:24;2.55;;;0.88;;
81701;SDS011;71115;52.150;4.510;2023-07-31T09:42:51;3.13;;;0.98;;
81701;SDS011;71115;52.150;4.510;2023-07-31T09:45:17;4.13;;;1.00;;
81701;SDS011;71115;52.150;4.510;2023-07-31T09:47:47;2.83;;;1.10;;
81701;SDS011;71115;52.150;4.510;2023-07-31T09:50:14;3.38;;;0.85;;
81701;SDS011;71115;52.150;4.510;2023-07-31T09:52:41;2.83;;;1.10;;
81701;SDS011;71115;52.150;4.510;2023-07-31T09:55:07;2.20;;;0.98;;
81701;SDS011;71115;52.150;4.510;2023-07-31T09:57:33;2.92;;;0.88;;
81701;SDS011;71115;52.150;4.510;2023-07-31T10:02:26;3.45;;;1.15;;
81701;SDS011;71115;52.150;4.510;2023-07-31T10:04:52;2.42;;;0.85;;
81701;SDS011;71115;52.150;4.510;2023-07-31T10:07:23;3.05;;;0.88;;
81701;SDS011;71115;52.150;4.510;2023-07-31T10:09:51;3.63;;;1.10;;
81701;SDS011;71115;52.150;4.510;2023-07-31T10:12:18;1.63;;;0.65;;
81701;SDS011;71115;52.150;4.510;2023-07-31T10:14:45;4.80;;;1.15;;
81701;SDS011;71115;52.150;4.510;2023-07-31T10:17:11;3.60;;;1.10;;
81701;SDS011;71115;52.150;4.510;2023-07-31T10:19:37;2.58;;;0.90;;
81701;SDS011;71115;52.150;4.510;2023-07-31T10:22:04;4.25;;;1.42;;
81701;SDS011;71115;52.150;4.510;2023-07-31T10:24:30;2.63;;;0.80;;
81701;SDS011;71115;52.150;4.510;2023-07-31T10:26:57;4.07;;;0.88;;
81701;SDS011;71115;52.150;4.510;2023-07-31T10:29:23;3.53;;;1.10;;
81701;SDS011;71115;52.150;4.510;2023-07-31T10:31:50;3.60;;;0.80;;
81701;SDS011;71115;52.150;4.510;2023-07-31T10:34:16;2.58;;;0.95;;
81701;SDS011;71115;52.150;4.510;2023-07-31T10:36:42;4.25;;;1.45;;
81701;SDS011;71115;52.150;4.510;2023-07-31T10:41:53;2.55;;;0.85;;
81701;SDS011;71115;52.150;4.510;2023-07-31T10:44:19;6.30;;;0.98;;
81701;SDS011;71115;52.150;4.510;2023-07-31T10:46:45;4.10;;;0.93;;
81701;SDS011;71115;52.150;4.510;2023-07-31T10:49:12;3.17;;;0.98;;
81701;SDS011;71115;52.150;4.510;2023-07-31T10:51:47;3.75;;;1.27;;
81701;SDS011;71115;52.150;4.510;2023-07-31T10:54:13;2.40;;;0.90;;
81701;SDS011;71115;52.150;4.510;2023-07-31T10:56:44;3.45;;;1.00;;
81701;SDS011;71115;52.150;4.510;2023-07-31T10:59:11;2.70;;;0.80;;
81701;SDS011;71115;52.150;4.510;2023-07-31T11:01:53;2.28;;;0.82;;
81701;SDS011;71115;52.150;4.510;2023-07-31T11:04:25;2.72;;;1.08;;
81701;SDS011;71115;52.150;4.510;2023-07-31T11:06:55;3.80;;;1.17;;
81701;SDS011;71115;52.150;4.510;2023-07-31T11:09:22;3.15;;;1.10;;
81701;SDS011;71115;52.150;4.510;2023-07-31T11:11:48;3.33;;;1.00;;
81701;SDS011;71115;52.150;4.510;2023-07-31T11:14:16;3.97;;;1.20;;
81701;SDS011;71115;52.150;4.510;2023-07-31T11:16:43;4.68;;;0.95;;
81701;SDS011;71115;52.150;4.510;2023-07-31T11:19:09;3.65;;;1.30;;
81701;SDS011;71115;52.150;4.510;2023-07-31T11:21:35;2.95;;;1.08;;
81701;SDS011;71115;52.150;4.510;2023-07-31T11:24:01;2.00;;;0.85;;
81701;SDS011;71115;52.150;4.510;2023-07-31T11:26:27;4.90;;;1.02;;
81701;SDS011;71115;52.150;4.510;2023-07-31T11:28:53;5.45;;;1.02;;
81701;SDS011;71115;52.150;4.510;2023-07-31T11:31:19;3.75;;;1.25;;
81701;SDS011;71115;52.150;4.510;2023-07-31T11:33:45;4.97;;;1.65;;
81701;SDS011;71115;52.150;4.510;2023-07-31T11:36:19;5.50;;;1.33;;
81701;SDS011;71115;52.150;4.510;2023-07-31T11:38:45;2.72;;;0.90;;
81701;SDS011;71115;52.150;4.510;2023-07-31T11:41:13;3.45;;;1.08;;
81701;SDS011;71115;52.150;4.510;2023-07-31T11:43:39;4.22;;;1.10;;
81701;SDS011;71115;52.150;4.510;2023-07-31T11:46:05;4.50;;;1.38;;
81701;SDS011;71115;52.150;4.510;2023-07-31T11:48:36;4.22;;;1.77;;
81701;SDS011;71115;52.150;4.510;2023-07-31T11:51:03;5.15;;;0.90;;
81701;SDS011;71115;52.150;4.510;2023-07-31T11:56:01;2.78;;;1.02;;
81701;SDS011;71115;52.150;4.510;2023-07-31T11:58:30;4.43;;;1.35;;
81701;SDS011;71115;52.150;4.510;2023-07-31T12:00:56;4.03;;;1.00;;
81701;SDS011;71115;52.150;4.510;2023-07-31T12:03:23;3.45;;;0.95;;
81701;SDS011;71115;52.150;4.510;2023-07-31T12:05:49;2.53;;;0.77;;
81701;SDS011;71115;52.150;4.510;2023-07-31T12:08:15;2.83;;;0.98;;
81701;SDS011;71115;52.150;4.510;2023-07-31T12:10:41;4.47;;;1.50;;
81701;SDS011;71115;52.150;4.510;2023-07-31T12:13:09;2.90;;;1.00;;
81701;SDS011;71115;52.150;4.510;2023-07-31T12:15:39;3.90;;;1.23;;
81701;SDS011;71115;52.150;4.510;2023-07-31T12:18:08;3.13;;;0.98;;
81701;SDS011;71115;52.150;4.510;2023-07-31T12:20:35;1.95;;;0.73;;
81701;SDS011;71115;52.150;4.510;2023-07-31T12:23:01;3.63;;;1.00;;
81701;SDS011;71115;52.150;4.510;2023-07-31T12:25:31;3.10;;;1.02;;
81701;SDS011;71115;52.150;4.510;2023-07-31T12:27:58;4.65;;;1.23;;
81701;SDS011;71115;52.150;4.510;2023-07-31T12:32:50;4.75;;;1.10;;
81701;SDS011;71115;52.150;4.510;2023-07-31T12:35:16;3.47;;;1.17;;
81701;SDS011;71115;52.150;4.510;2023-07-31T12:37:41;2.08;;;0.77;;
81701;SDS011;71115;52.150;4.510;2023-07-31T12:40:08;4.28;;;2.20;;
81701;SDS011;71115;52.150;4.510;2023-07-31T12:42:34;3.00;;;0.98;;
81701;SDS011;71115;52.150;4.510;2023-07-31T12:45:00;3.42;;;0.85;;
81701;SDS011;71115;52.150;4.510;2023-07-31T12:47:26;2.78;;;0.90;;
81701;SDS011;71115;52.150;4.510;2023-07-31T12:49:52;3.72;;;1.30;;
81701;SDS011;71115;52.150;4.510;2023-07-31T12:52:18;3.00;;;1.00;;
81701;SDS011;71115;52.150;4.510;2023-07-31T12:54:44;4.03;;;1.20;;
81701;SDS011;71115;52.150;4.510;2023-07-31T12:57:10;1.98;;;0.70;;
81701;SDS011;71115;52.150;4.510;2023-07-31T12:59:36;3.05;;;0.90;;
81701;SDS011;71115;52.150;4.510;2023-07-31T13:02:02;2.10;;;0.80;;
81701;SDS011;71115;52.150;4.510;2023-07-31T13:04:28;3.38;;;1.00;;
81701;SDS011;71115;52.150;4.510;2023-07-31T13:06:54;2.60;;;0.90;;
81701;SDS011;71115;52.150;4.510;2023-07-31T13:09:20;2.72;;;0.90;;
81701;SDS011;71115;52.150;4.510;2023-07-31T13:11:46;5.07;;;1.17;;
81701;SDS011;71115;52.150;4.510;2023-07-31T13:14:12;3.67;;;1.15;;
81701;SDS011;71115;52.150;4.510;2023-07-31T13:16:38;2.40;;;1.10;;
81701;SDS011;71115;52.150;4.510;2023-07-31T13:19:04;3.55;;;1.08;;
81701;SDS011;71115;52.150;4.510;2023-07-31T13:21:30;3.42;;;1.02;;
81701;SDS011;71115;52.150;4.510;2023-07-31T13:23:56;2.83;;;1.05;;
81701;SDS011;71115;52.150;4.510;2023-07-31T13:26:24;3.30;;;1.10;;
81701;SDS011;71115;52.150;4.510;2023-07-31T13:28:50;1.67;;;0.70;;
81701;SDS011;71115;52.150;4.510;2023-07-31T13:31:16;3.80;;;1.23;;
81701;SDS011;71115;52.150;4.510;2023-07-31T13:33:42;2.78;;;1.02;;
81701;SDS011;71115;52.150;4.510;2023-07-31T13:36:08;2.70;;;0.90;;
81701;SDS011;71115;52.150;4.510;2023-07-31T13:38:34;3.55;;;0.93;;
81701;SDS011;71115;52.150;4.510;2023-07-31T13:41:00;2.83;;;0.90;;
81701;SDS011;71115;52.150;4.510;2023-07-31T13:43:27;3.15;;;1.02;;
81701;SDS011;71115;52.150;4.510;2023-07-31T13:45:53;2.38;;;0.88;;
81701;SDS011;71115;52.150;4.510;2023-07-31T13:48:19;3.00;;;0.90;;
81701;SDS011;71115;52.150;4.510;2023-07-31T13:50:45;2.85;;;0.75;;
81701;SDS011;71115;52.150;4.510;2023-07-31T13:53:11;2.67;;;0.98;;
81701;SDS011;71115;52.150;4.510;2023-07-31T13:55:37;2.58;;;0.85;;
81701;SDS011;71115;52.150;4.510;2023-07-31T13:58:03;1.90;;;0.70;;
81701;SDS011;71115;52.150;4.510;2023-07-31T14:00:29;4.03;;;1.10;;
81701;SDS011;71115;52.150;4.510;2023-07-31T14:02:55;2.75;;;0.90;;
81701;SDS011;71115;52.150;4.510;2023-07-31T14:05:21;3.28;;;1.27;;
81701;SDS011;71115;52.150;4.510;2023-07-31T14:07:47;2.50;;;0.98;;
81701;SDS011;71115;52.150;4.510;2023-07-31T14:10:13;1.90;;;0.80;;
81701;SDS011;71115;52.150;4.510;2023-07-31T14:12:39;2.90;;;1.10;;
81701;SDS011;71115;52.150;4.510;2023-07-31T14:15:05;4.20;;;1.08;;
81701;SDS011;71115;52.150;4.510;2023-07-31T14:17:31;3.33;;;1.00;;
81701;SDS011;71115;52.150;4.510;2023-07-31T14:19:57;1.67;;;0.63;;
81701;SDS011;71115;52.150;4.510;2023-07-31T14:22:29;2.70;;;0.95;;
81701;SDS011;71115;52.150;4.510;2023-07-31T14:24:56;2.42;;;0.93;;
81701;SDS011;71115;52.150;4.510;2023-07-31T14:27:22;2.97;;;0.93;;
81701;SDS011;71115;52.150;4.510;2023-07-31T14:29:48;3.33;;;0.90;;
81701;SDS011;71115;52.150;4.510;2023-07-31T14:32:14;2.60;;;0.70;;
81701;SDS011;71115;52.150;4.510;2023-07-31T14:34:40;2.97;;;0.85;;
81701;SDS011;71115;52.150;4.510;2023-07-31T14:39:32;3.85;;;0.98;;
81701;SDS011;71115;52.150;4.510;2023-07-31T14:41:58;2.85;;;0.82;;
81701;SDS011;71115;52.150;4.510;2023-07-31T14:44:24;2.28;;;0.70;;
81701;SDS011;71115;52.150;4.510;2023-07-31T14:46:50;3.25;;;0.90;;
81701;SDS011;71115;52.150;4.510;2023-07-31T14:49:16;3.35;;;1.02;;
81701;SDS011;71115;52.150;4.510;2023-07-31T14:51:42;0.88;;;0.40;;
81701;SDS011;71115;52.150;4.510;2023-07-31T14:54:08;2.25;;;0.80;;
81701;SDS011;71115;52.150;4.510;2023-07-31T14:56:34;1.90;;;0.73;;
81701;SDS011;71115;52.150;4.510;2023-07-31T14:59:00;2.70;;;0.75;;
81701;SDS011;71115;52.150;4.510;2023-07-31T15:01:26;2.25;;;0.80;;
81701;SDS011;71115;52.150;4.510;2023-07-31T15:03:52;2.90;;;0.90;;
81701;SDS011;71115;52.150;4.510;2023-07-31T15:06:18;2.10;;;0.70;;
81701;SDS011;71115;52.150;4.510;2023-07-31T15:08:44;1.45;;;0.63;;
81701;SDS011;71115;52.150;4.510;2023-07-31T15:11:10;2.00;;;0.63;;
81701;SDS011;71115;52.150;4.510;2023-07-31T15:13:36;2.20;;;0.70;;
81701;SDS011;71115;52.150;4.510;2023-07-31T15:16:02;3.65;;;0.98;;
81701;SDS011;71115;52.150;4.510;2023-07-31T15:18:28;1.85;;;0.80;;
81701;SDS011;71115;52.150;4.510;2023-07-31T15:20:54;2.42;;;0.90;;
81701;SDS011;71115;52.150;4.510;2023-07-31T15:23:20;1.83;;;0.75;;